createdAt,value
2022-08-19T00:01:53.362Z,80.18
2022-08-19T00:04:23.196Z,80.84
2022-08-19T00:06:49.778Z,81.11
2022-08-19T00:09:18.326Z,81.77
2022-08-19T00:11:46.034Z,81.12
2022-08-19T00:14:15.815Z,80.91
2022-08-19T00:16:44.694Z,81.36
2022-08-19T00:19:11.491Z,82.04
2022-08-19T00:21:37.850Z,82.62
2022-08-19T00:24:04.251Z,82.68
2022-08-19T00:26:30.679Z,83.70
2022-08-19T00:28:57.026Z,84.35
2022-08-19T00:31:23.578Z,84.09
2022-08-19T00:33:49.936Z,84.10
2022-08-19T00:36:16.311Z,84.28
2022-08-19T00:38:42.639Z,83.54
2022-08-19T00:41:10.104Z,83.08
2022-08-19T00:43:36.609Z,82.44
2022-08-19T00:46:03.019Z,82.81
2022-08-19T00:48:29.456Z,83.05
2022-08-19T00:50:56.239Z,82.85
2022-08-19T00:53:25.044Z,82.94
2022-08-19T00:55:54.461Z,83.23
2022-08-19T00:58:23.122Z,83.24
2022-08-19T01:00:49.682Z,82.93
2022-08-19T01:03:19.755Z,82.81
2022-08-19T01:05:48.411Z,83.21
2022-08-19T01:08:17.171Z,83.69
2022-08-19T01:10:47.910Z,84.76
2022-08-19T01:13:20.975Z,85.63
2022-08-19T01:15:51.830Z,85.79
2022-08-19T01:18:19.961Z,86.47
2022-08-19T01:20:46.970Z,86.72
2022-08-19T01:23:14.003Z,86.39
2022-08-19T01:25:48.222Z,85.47
2022-08-19T01:28:39.701Z,84.85
2022-08-19T01:31:09.366Z,84.26
2022-08-19T01:33:35.708Z,84.14
2022-08-19T01:36:08.141Z,84.22
2022-08-19T01:38:38.165Z,84.26
2022-08-19T01:41:12.564Z,84.23
2022-08-19T01:43:39.189Z,84.69
2022-08-19T01:46:25.513Z,84.69
2022-08-19T01:48:51.889Z,85.00
2022-08-19T01:51:18.285Z,85.89
2022-08-19T01:53:48.534Z,86.19
2022-08-19T01:56:15.218Z,86.09
2022-08-19T01:58:50.113Z,85.87
2022-08-19T02:01:16.456Z,86.58
2022-08-19T02:03:42.855Z,86.68
2022-08-19T02:06:09.424Z,86.90
2022-08-19T02:08:39.613Z,87.10
2022-08-19T02:11:07.087Z,86.75
2022-08-19T02:13:34.212Z,86.84
2022-08-19T02:16:01.168Z,86.95
2022-08-19T02:18:30.725Z,87.12
2022-08-19T02:20:57.071Z,87.18
2022-08-19T02:23:23.460Z,87.32
2022-08-19T02:25:52.234Z,87.60
2022-08-19T02:28:19.162Z,87.62
2022-08-19T02:30:46.862Z,87.77
2022-08-19T02:33:13.227Z,88.21
2022-08-19T02:35:43.051Z,88.72
2022-08-19T02:38:09.454Z,89.24
2022-08-19T02:40:36.066Z,89.43
2022-08-19T02:43:04.935Z,89.40
2022-08-19T02:45:37.264Z,89.35
2022-08-19T02:48:14.867Z,89.52
2022-08-19T02:50:53.379Z,89.21
2022-08-19T02:53:20.230Z,89.24
2022-08-19T02:55:47.571Z,89.18
2022-08-19T02:58:15.684Z,89.42
2022-08-19T03:00:57.223Z,89.76
2022-08-19T03:03:23.712Z,89.54
2022-08-19T03:05:56.482Z,89.41
2022-08-19T03:08:24.603Z,89.98
2022-08-19T03:10:50.958Z,90.58
2022-08-19T03:13:18.790Z,90.77
2022-08-19T03:15:48.159Z,90.69
2022-08-19T03:18:15.507Z,90.09
2022-08-19T03:20:50.003Z,89.68
2022-08-19T03:23:17.803Z,89.73
2022-08-19T03:25:46.910Z,89.64
2022-08-19T03:28:24.494Z,89.93
2022-08-19T03:30:58.733Z,89.76
2022-08-19T03:33:29.059Z,89.77
2022-08-19T03:36:14.814Z,89.61
2022-08-19T03:38:46.754Z,89.71
2022-08-19T03:41:16.078Z,90.29
2022-08-19T03:43:43.071Z,90.69
2022-08-19T03:46:15.597Z,90.92
2022-08-19T03:48:43.830Z,90.83
2022-08-19T03:51:18.313Z,90.44
2022-08-19T03:53:58.250Z,90.60
2022-08-19T03:56:25.480Z,90.19
2022-08-19T03:58:52.732Z,89.67
2022-08-19T04:01:22.243Z,89.62
2022-08-19T04:04:04.641Z,89.49
2022-08-19T04:06:33.759Z,89.36
2022-08-19T04:09:01.763Z,89.74
2022-08-19T04:11:42.860Z,90.04
2022-08-19T04:14:16.333Z,90.29
2022-08-19T04:16:43.931Z,90.26
2022-08-19T04:19:10.300Z,90.33
2022-08-19T04:21:36.743Z,90.79
2022-08-19T04:24:04.362Z,90.61
2022-08-19T04:26:33.722Z,90.47
2022-08-19T04:29:02.437Z,90.86
2022-08-19T04:31:30.820Z,88.62
2022-08-19T04:33:59.299Z,88.40
2022-08-19T04:36:29.907Z,88.95
2022-08-19T04:39:04.513Z,89.29
2022-08-19T04:41:30.874Z,89.81
2022-08-19T04:44:00.184Z,89.82
2022-08-19T04:46:40.200Z,89.80
2022-08-19T04:49:19.539Z,89.02
2022-08-19T04:51:47.328Z,88.47
2022-08-19T04:54:14.440Z,88.44
2022-08-19T04:56:45.393Z,87.44
2022-08-19T04:59:11.754Z,86.65
2022-08-19T05:01:38.342Z,86.10
2022-08-19T05:04:06.929Z,85.13
2022-08-19T05:06:34.102Z,85.51
2022-08-19T05:09:04.399Z,86.26
2022-08-19T05:11:36.352Z,84.63
2022-08-19T05:14:02.734Z,84.65
2022-08-19T05:16:29.223Z,85.49
2022-08-19T05:18:56.336Z,86.24
2022-08-19T05:21:23.015Z,86.71
2022-08-19T05:23:49.374Z,85.55
2022-08-19T05:26:15.702Z,85.32
2022-08-19T05:28:42.038Z,85.48
2022-08-19T05:31:08.380Z,85.10
2022-08-19T05:33:34.721Z,83.89
2022-08-19T05:36:03.323Z,84.48
2022-08-19T05:38:29.756Z,84.65
2022-08-19T05:40:56.106Z,83.79
2022-08-19T05:43:22.579Z,83.12
2022-08-19T05:45:48.914Z,80.98
2022-08-19T05:48:15.269Z,80.65
2022-08-19T05:50:42.699Z,79.71
2022-08-19T05:53:09.064Z,80.45
2022-08-19T05:55:36.089Z,77.15
2022-08-19T05:58:02.424Z,74.65
2022-08-19T06:00:28.804Z,73.08
2022-08-19T06:02:55.332Z,72.67
2022-08-19T06:05:21.903Z,72.48
2022-08-19T06:07:48.321Z,72.10
2022-08-19T06:10:14.799Z,70.02
2022-08-19T06:12:41.143Z,69.33
2022-08-19T06:15:11.385Z,68.94
2022-08-19T06:17:38.300Z,68.75
2022-08-19T06:20:07.715Z,69.80
2022-08-19T06:22:39.514Z,67.51
2022-08-19T06:25:06.575Z,64.42
2022-08-19T06:27:33.033Z,62.99
2022-08-19T06:29:59.430Z,61.14
2022-08-19T06:32:25.782Z,59.87
2022-08-19T06:34:52.131Z,59.76
2022-08-19T06:37:18.460Z,59.58
2022-08-19T06:39:45.677Z,59.69
2022-08-19T06:42:13.327Z,61.43
2022-08-19T06:44:42.863Z,63.64
2022-08-19T06:47:14.624Z,64.43
2022-08-19T06:49:42.103Z,65.57
2022-08-19T06:52:09.405Z,67.28
2022-08-19T06:54:56.115Z,67.68
2022-08-19T06:57:27.053Z,66.64
2022-08-19T06:59:53.893Z,66.60
2022-08-19T07:02:20.605Z,68.29
2022-08-19T07:04:47.021Z,68.25
2022-08-19T07:07:19.807Z,67.92
2022-08-19T07:09:52.264Z,68.23
2022-08-19T07:12:28.006Z,67.99
2022-08-19T07:14:56.600Z,68.59
2022-08-19T07:17:24.272Z,67.07
2022-08-19T07:19:51.138Z,67.29
2022-08-19T07:22:20.420Z,65.39
2022-08-19T07:24:51.080Z,66.15
2022-08-19T07:27:18.493Z,65.74
2022-08-19T07:29:56.231Z,66.26
2022-08-19T07:32:25.577Z,64.86
2022-08-19T07:34:51.914Z,65.23
2022-08-19T07:37:18.259Z,65.52
2022-08-19T07:39:44.738Z,66.71
2022-08-19T07:42:13.436Z,66.39
2022-08-19T07:47:49.137Z,66.71
2022-08-19T07:49:58.597Z,65.71
2022-08-19T07:52:24.980Z,65.48
2022-08-19T07:54:51.366Z,65.48
2022-08-19T07:57:17.870Z,64.98
2022-08-19T07:59:44.209Z,62.95
2022-08-19T08:02:10.598Z,63.07
2022-08-19T08:04:37.067Z,61.71
2022-08-19T08:07:04.652Z,61.63
2022-08-19T08:09:39.444Z,62.07
2022-08-19T08:12:33.779Z,62.41
2022-08-19T08:15:08.549Z,62.41
2022-08-19T08:17:49.854Z,62.41
2022-08-19T08:20:18.629Z,62.96
2022-08-19T08:22:46.715Z,62.68
2022-08-19T08:25:20.643Z,62.19
2022-08-19T08:27:47.615Z,62.26
2022-08-19T08:30:23.723Z,61.80
2022-08-19T08:32:51.998Z,63.48
2022-08-19T08:35:21.714Z,65.17
2022-08-19T08:37:51.218Z,65.06
2022-08-19T08:40:31.454Z,65.28
2022-08-19T08:43:34.091Z,64.45
2022-08-19T08:46:38.407Z,63.46
2022-08-19T08:49:39.220Z,61.27
2022-08-19T08:52:08.187Z,63.42
2022-08-19T08:54:48.854Z,60.50
2022-08-19T08:57:45.233Z,59.44
2022-08-19T09:00:16.623Z,58.24
2022-08-19T09:02:44.295Z,58.95
2022-08-19T09:05:16.688Z,59.34
2022-08-19T09:07:58.819Z,58.09
2022-08-19T09:10:36.238Z,56.61
2022-08-19T09:13:37.337Z,55.42
2022-08-19T09:16:13.474Z,56.60
2022-08-19T09:18:52.443Z,56.81
2022-08-19T09:21:30.250Z,55.84
2022-08-19T09:23:59.609Z,55.67
2022-08-19T09:26:47.258Z,54.76
2022-08-19T09:29:14.409Z,55.30
2022-08-19T09:31:41.061Z,55.49
2022-08-19T09:34:07.436Z,55.27
2022-08-19T09:36:47.168Z,54.64
2022-08-19T09:39:14.913Z,52.90
2022-08-19T09:41:43.025Z,53.29
2022-08-19T09:44:14.042Z,52.15
2022-08-19T09:46:40.385Z,53.20
2022-08-19T09:49:06.989Z,52.59
2022-08-19T09:51:33.795Z,53.70
2022-08-19T09:54:04.583Z,50.85
2022-08-19T09:56:32.902Z,50.69
2022-08-19T09:59:02.148Z,49.80
2022-08-19T10:01:30.601Z,50.55
2022-08-19T10:03:59.201Z,49.65
2022-08-19T10:06:43.230Z,49.16
2022-08-19T10:09:13.161Z,48.80
2022-08-19T10:11:51.213Z,49.79
2022-08-19T10:14:19.219Z,50.26
2022-08-19T10:16:45.550Z,51.06
2022-08-19T10:19:11.898Z,49.67
2022-08-19T10:21:38.275Z,49.33
2022-08-19T10:24:07.179Z,49.29
2022-08-19T10:26:38.944Z,50.82
2022-08-19T10:29:05.860Z,49.70
2022-08-19T10:32:00.371Z,49.66
2022-08-19T10:34:27.589Z,48.86
2022-08-19T10:36:57.585Z,49.12
2022-08-19T10:39:30.771Z,49.22
2022-08-19T10:41:58.007Z,48.04
2022-08-19T10:44:24.455Z,48.69
2022-08-19T10:46:51.147Z,48.63
2022-08-19T10:49:17.540Z,48.19
2022-08-19T10:51:46.552Z,47.95
2022-08-19T10:54:15.697Z,48.05
2022-08-19T10:56:42.178Z,48.03
2022-08-19T10:59:08.715Z,50.29
2022-08-19T11:01:36.004Z,50.17
2022-08-19T11:04:04.880Z,49.49
2022-08-19T11:06:34.511Z,47.29
2022-08-19T11:09:00.872Z,46.71
2022-08-19T11:11:28.141Z,44.96
2022-08-19T11:13:54.483Z,44.74
2022-08-19T11:16:25.306Z,46.51
2022-08-19T11:18:55.048Z,45.35
2022-08-19T11:21:24.836Z,43.62
2022-08-19T11:23:54.494Z,43.64
2022-08-19T11:26:23.125Z,44.08
2022-08-19T11:28:50.033Z,44.01
2022-08-19T11:31:20.465Z,42.92
2022-08-19T11:33:48.156Z,43.22
2022-08-19T11:36:15.007Z,43.34
2022-08-19T11:38:41.627Z,41.57
2022-08-19T11:41:08.611Z,40.47
2022-08-19T11:43:37.627Z,40.14
2022-08-19T11:46:06.451Z,40.95
2022-08-19T11:48:32.808Z,41.16
2022-08-19T11:50:59.336Z,42.14
2022-08-19T11:53:25.713Z,41.35
2022-08-19T11:55:54.751Z,41.94
2022-08-19T11:58:21.106Z,40.92
2022-08-19T12:00:47.447Z,40.64
2022-08-19T12:03:14.355Z,42.28
2022-08-19T12:05:41.888Z,43.21
2022-08-19T12:08:08.728Z,42.68
2022-08-19T12:10:35.725Z,41.58
2022-08-19T12:13:02.246Z,42.05
2022-08-19T12:15:29.366Z,41.67
2022-08-19T12:18:04.735Z,41.42
2022-08-19T12:20:32.006Z,42.09
2022-08-19T12:23:01.945Z,42.10
2022-08-19T12:25:28.294Z,42.88
2022-08-19T12:27:57.425Z,41.15
2022-08-19T12:30:24.556Z,41.80
2022-08-19T12:32:51.039Z,41.87
2022-08-19T12:35:18.442Z,42.16
2022-08-19T12:37:45.123Z,42.26
2022-08-19T12:40:22.978Z,41.83
2022-08-19T12:42:49.479Z,41.70
2022-08-19T12:45:15.818Z,42.27
2022-08-19T12:47:42.989Z,43.27
2022-08-19T12:50:12.762Z,41.50
2022-08-19T12:52:39.113Z,42.00
2022-08-19T12:55:07.928Z,43.35
2022-08-19T12:57:34.635Z,41.23
2022-08-19T13:00:06.936Z,41.95
2022-08-19T13:02:38.910Z,42.76
2022-08-19T13:05:07.478Z,43.28
2022-08-19T13:07:33.944Z,43.16
2022-08-19T13:10:00.300Z,41.61
2022-08-19T13:12:26.708Z,40.70
2022-08-19T13:14:54.195Z,41.57
2022-08-19T13:17:21.327Z,40.99
2022-08-19T13:19:47.695Z,41.25
2022-08-19T13:22:15.211Z,41.21
2022-08-19T13:24:46.388Z,41.75
2022-08-19T13:27:13.775Z,41.01
2022-08-19T13:29:41.712Z,41.90
2022-08-19T13:32:09.494Z,41.02
2022-08-19T13:34:39.499Z,40.99
2022-08-19T13:37:06.236Z,42.22
2022-08-19T13:39:34.257Z,41.95
2022-08-19T13:42:01.952Z,42.04
2022-08-19T13:44:29.112Z,41.99
2022-08-19T13:46:55.443Z,42.19
2022-08-19T13:49:21.801Z,41.52
2022-08-19T13:51:48.150Z,38.48
2022-08-19T13:54:14.600Z,38.18
2022-08-19T13:56:43.548Z,39.36
2022-08-19T13:59:10.082Z,39.98
2022-08-19T14:01:37.117Z,39.43
2022-08-19T14:04:04.979Z,38.35
2022-08-19T14:06:31.331Z,37.63
2022-08-19T14:08:57.673Z,38.52
2022-08-19T14:11:24.087Z,39.87
2022-08-19T14:13:51.034Z,40.19
2022-08-19T14:16:18.401Z,40.52
2022-08-19T14:18:45.035Z,39.79
2022-08-19T14:21:23.334Z,40.17
2022-08-19T14:23:49.726Z,40.19
2022-08-19T14:26:19.153Z,38.87
2022-08-19T14:28:46.336Z,39.56
2022-08-19T14:31:14.515Z,38.43
2022-08-19T14:33:40.850Z,37.72
2022-08-19T14:36:07.557Z,39.25
2022-08-19T14:38:33.929Z,38.78
2022-08-19T14:41:16.377Z,38.74
2022-08-19T14:43:43.057Z,39.20
2022-08-19T14:46:09.406Z,39.82
2022-08-19T14:48:36.979Z,40.34
2022-08-19T14:51:08.429Z,40.53
2022-08-19T14:53:34.825Z,39.95
2022-08-19T14:56:02.066Z,38.36
2022-08-19T14:58:30.434Z,37.49
2022-08-19T15:00:58.870Z,37.26
2022-08-19T15:03:25.249Z,38.36
2022-08-19T15:05:51.591Z,37.22
2022-08-19T15:08:17.941Z,37.69
2022-08-19T15:10:44.298Z,38.06
2022-08-19T15:13:10.642Z,38.88
2022-08-19T15:15:37.020Z,40.04
2022-08-19T15:18:03.587Z,41.13
2022-08-19T15:20:30.472Z,40.06
2022-08-19T15:22:56.927Z,40.37
2022-08-19T15:25:23.280Z,40.90
2022-08-19T15:27:49.654Z,41.07
2022-08-19T15:30:21.804Z,40.65
2022-08-19T15:32:49.201Z,39.58
2022-08-19T15:35:16.725Z,40.32
2022-08-19T15:37:43.106Z,40.52
2022-08-19T15:40:09.873Z,39.02
2022-08-19T15:42:37.948Z,39.43
2022-08-19T15:45:08.516Z,39.48
2022-08-19T15:47:35.777Z,38.87
2022-08-19T15:50:21.039Z,38.75
2022-08-19T15:53:01.241Z,38.26
2022-08-19T15:55:32.841Z,37.86
2022-08-19T15:58:06.362Z,37.69
2022-08-19T16:00:34.231Z,36.87
2022-08-19T16:03:00.652Z,36.66
2022-08-19T16:05:27.267Z,36.34
2022-08-19T16:07:54.067Z,36.57
2022-08-19T16:10:27.059Z,36.44
2022-08-19T16:12:55.361Z,36.23
2022-08-19T16:15:21.845Z,36.38
2022-08-19T16:17:55.483Z,36.23
2022-08-19T16:20:24.731Z,39.31
2022-08-19T16:22:51.607Z,39.19
2022-08-19T16:25:17.996Z,40.32
2022-08-19T16:27:54.336Z,40.47
2022-08-19T16:30:30.662Z,39.93
2022-08-19T16:32:57.142Z,38.86
2022-08-19T16:35:23.495Z,39.47
2022-08-19T16:37:49.838Z,39.65
2022-08-19T16:40:16.283Z,39.33
2022-08-19T16:42:42.701Z,39.42
2022-08-19T16:45:09.369Z,40.12
2022-08-19T16:47:36.297Z,40.04
2022-08-19T16:50:03.543Z,39.17
2022-08-19T16:52:30.011Z,39.70
2022-08-19T16:54:56.385Z,38.84
2022-08-19T16:57:22.738Z,38.57
2022-08-19T16:59:49.616Z,38.18
2022-08-19T17:02:22.035Z,39.46
2022-08-19T17:04:58.120Z,39.63
2022-08-19T17:07:29.070Z,40.21
2022-08-19T17:09:56.516Z,40.87
2022-08-19T17:12:32.192Z,41.07
2022-08-19T17:15:00.443Z,40.93
2022-08-19T17:17:29.085Z,41.08
2022-08-19T17:19:55.994Z,41.22
2022-08-19T17:22:22.360Z,41.76
2022-08-19T17:24:48.715Z,41.64
2022-08-19T17:27:15.125Z,41.82
2022-08-19T17:29:45.073Z,42.18
2022-08-19T17:32:13.527Z,42.92
2022-08-19T17:34:39.891Z,43.65
2022-08-19T17:37:06.214Z,43.62
2022-08-19T17:39:32.575Z,43.98
2022-08-19T17:42:05.502Z,43.96
2022-08-19T17:44:32.256Z,44.18
2022-08-19T17:46:58.596Z,44.22
2022-08-19T17:49:24.954Z,44.41
2022-08-19T17:51:51.286Z,45.16
2022-08-19T17:54:19.299Z,44.51
2022-08-19T17:56:46.305Z,44.62
2022-08-19T17:59:14.513Z,45.04
2022-08-19T18:01:52.335Z,45.30
2022-08-19T18:04:21.050Z,45.95
2022-08-19T18:06:53.380Z,46.40
2022-08-19T18:09:27.850Z,46.71
2022-08-19T18:11:56.235Z,46.85
2022-08-19T18:14:25.604Z,47.05
2022-08-19T18:16:57.968Z,47.33
2022-08-19T18:19:26.072Z,47.67
2022-08-19T18:22:07.330Z,48.53
2022-08-19T18:24:33.667Z,48.72
2022-08-19T18:27:00.005Z,49.03
2022-08-19T18:29:26.378Z,49.15
2022-08-19T18:31:52.715Z,49.49
2022-08-19T18:34:19.063Z,49.84
2022-08-19T18:36:54.059Z,49.49
2022-08-19T18:39:20.711Z,50.13
2022-08-19T18:41:47.235Z,50.46
2022-08-19T18:44:13.564Z,50.58
2022-08-19T18:46:39.913Z,51.60
2022-08-19T18:49:06.708Z,52.17
2022-08-19T18:51:33.328Z,52.43
2022-08-19T18:54:00.194Z,52.32
2022-08-19T18:56:28.615Z,52.63
2022-08-19T18:58:55.606Z,53.33
2022-08-19T19:01:27.087Z,53.76
2022-08-19T19:03:54.872Z,53.96
2022-08-19T19:06:23.891Z,53.76
2022-08-19T19:08:52.163Z,53.37
2022-08-19T19:11:25.849Z,53.46
2022-08-19T19:13:52.525Z,54.08
2022-08-19T19:16:23.749Z,54.36
2022-08-19T19:18:50.950Z,55.23
2022-08-19T19:21:17.354Z,55.20
2022-08-19T19:23:43.690Z,55.83
2022-08-19T19:26:12.189Z,56.70
2022-08-19T19:28:40.039Z,57.31
2022-08-19T19:31:06.606Z,57.98
2022-08-19T19:33:33.068Z,57.92
2022-08-19T19:35:59.382Z,57.78
2022-08-19T19:38:25.739Z,58.25
2022-08-19T19:40:52.067Z,58.40
2022-08-19T19:43:18.499Z,58.69
2022-08-19T19:45:46.685Z,59.49
2022-08-19T19:48:13.168Z,59.71
2022-08-19T19:50:39.654Z,60.24
2022-08-19T19:53:05.987Z,60.41
2022-08-19T19:55:32.333Z,60.58
2022-08-19T19:57:58.655Z,60.11
2022-08-19T20:00:25.623Z,61.21
2022-08-19T20:02:52.176Z,62.06
2022-08-19T20:05:19.778Z,62.23
2022-08-19T20:07:46.346Z,62.80
2022-08-19T20:10:12.909Z,63.63
2022-08-19T20:12:39.461Z,63.73
2022-08-19T20:15:07.872Z,63.46
2022-08-19T20:17:34.195Z,63.31
2022-08-19T20:20:00.549Z,63.88
2022-08-19T20:22:26.944Z,63.64
2022-08-19T20:24:53.281Z,63.40
2022-08-19T20:27:19.909Z,63.31
2022-08-19T20:29:49.532Z,63.25
2022-08-19T20:32:18.788Z,63.34
2022-08-19T20:34:45.115Z,63.31
2022-08-19T20:37:11.465Z,63.38
2022-08-19T20:39:38.124Z,63.59
2022-08-19T20:42:04.799Z,63.84
2022-08-19T20:44:31.149Z,63.84
2022-08-19T20:47:01.746Z,64.05
2022-08-19T20:49:29.881Z,64.03
2022-08-19T20:51:56.679Z,64.04
2022-08-19T20:54:23.933Z,64.07
2022-08-19T20:56:50.542Z,63.45
2022-08-19T20:59:16.881Z,63.74
2022-08-19T21:01:43.218Z,63.87
2022-08-19T21:04:09.541Z,63.21
2022-08-19T21:06:36.227Z,63.20
2022-08-19T21:09:02.549Z,63.20
2022-08-19T21:11:28.936Z,63.48
2022-08-19T21:13:55.264Z,63.41
2022-08-19T21:16:21.611Z,62.66
2022-08-19T21:18:47.975Z,62.21
2022-08-19T21:21:14.351Z,62.82
2022-08-19T21:23:40.698Z,62.23
2022-08-19T21:26:07.133Z,62.41
2022-08-19T21:28:36.070Z,61.93
2022-08-19T21:31:05.090Z,62.29
2022-08-19T21:33:31.805Z,62.26
2022-08-19T21:35:59.017Z,62.42
2022-08-19T21:38:25.414Z,62.61
2022-08-19T21:40:51.770Z,62.85
2022-08-19T21:43:18.122Z,62.86
2022-08-19T21:45:46.443Z,62.53
2022-08-19T21:48:13.047Z,62.63
2022-08-19T21:50:39.377Z,62.91
2022-08-19T21:53:05.709Z,63.88
2022-08-19T21:55:32.123Z,63.93
2022-08-19T21:57:58.823Z,64.14
2022-08-19T22:00:26.878Z,64.06
2022-08-19T22:02:58.439Z,64.14
2022-08-19T22:05:25.492Z,63.66
2022-08-19T22:07:57.387Z,63.77
2022-08-19T22:10:28.307Z,64.51
2022-08-19T22:12:55.265Z,64.71
2022-08-19T22:15:23.032Z,64.96
2022-08-19T22:17:50.055Z,64.47
2022-08-19T22:20:20.498Z,64.75
2022-08-19T22:22:55.722Z,65.07
2022-08-19T22:25:31.489Z,65.88
2022-08-19T22:28:03.893Z,65.90
2022-08-19T22:30:33.754Z,66.14
2022-08-19T22:33:03.359Z,66.19
2022-08-19T22:35:32.456Z,66.05
2022-08-19T22:38:00.029Z,65.95
2022-08-19T22:40:29.180Z,66.19
2022-08-19T22:43:00.844Z,66.69
2022-08-19T22:45:27.986Z,66.98
2022-08-19T22:47:54.938Z,67.06
2022-08-19T22:50:21.475Z,67.45
2022-08-19T22:52:51.876Z,66.93
2022-08-19T22:55:19.120Z,67.92
2022-08-19T22:57:45.479Z,68.08
2022-08-19T23:00:12.400Z,67.76
2022-08-19T23:02:39.139Z,68.34
2022-08-19T23:05:18.403Z,68.47
2022-08-19T23:07:52.412Z,69.08
2022-08-19T23:10:26.723Z,69.50
2022-08-19T23:12:54.641Z,70.34
2022-08-19T23:15:23.289Z,70.15
2022-08-19T23:17:50.193Z,70.00
2022-08-19T23:20:17.035Z,70.50
2022-08-19T23:22:45.661Z,70.83
2022-08-19T23:25:16.129Z,71.23
2022-08-19T23:27:43.585Z,71.98
2022-08-19T23:30:10.699Z,71.70
2022-08-19T23:32:37.060Z,72.01
2022-08-19T23:35:04.755Z,72.19
2022-08-19T23:37:31.083Z,72.58
2022-08-19T23:39:57.479Z,72.38
2022-08-19T23:42:24.268Z,71.49
2022-08-19T23:44:52.195Z,72.49
2022-08-19T23:47:19.798Z,72.66
2022-08-19T23:49:46.223Z,72.85
2022-08-19T23:52:12.575Z,72.59
2022-08-19T23:54:43.520Z,73.04
2022-08-19T23:57:13.311Z,73.73
2022-08-19T23:59:40.886Z,73.17
